createdAt,value
2023-04-05T00:00:25.099Z,11.00
2023-04-05T00:03:29.026Z,10.80
2023-04-05T00:06:33.040Z,12.00
2023-04-05T00:09:37.703Z,18.00
2023-04-05T00:12:41.007Z,13.00
2023-04-05T00:15:44.388Z,16.00
2023-04-05T00:18:51.871Z,16.00
2023-04-05T00:21:55.297Z,11.60
2023-04-05T00:24:59.927Z,14.20
2023-04-05T00:28:03.723Z,14.00
2023-04-05T00:31:07.399Z,13.80
2023-04-05T00:34:12.540Z,13.00
2023-04-05T00:37:15.815Z,14.80
2023-04-05T00:40:21.121Z,13.40
2023-04-05T00:43:24.417Z,14.00
2023-04-05T00:46:29.826Z,14.25
2023-04-05T00:49:34.301Z,12.00
2023-04-05T00:52:38.195Z,11.60
2023-04-05T00:55:42.973Z,10.00
2023-04-05T00:58:48.701Z,16.50
2023-04-05T01:01:58.771Z,12.00
2023-04-05T01:05:10.108Z,14.20
2023-04-05T01:08:19.599Z,12.50
2023-04-05T01:11:26.423Z,12.50
2023-04-05T01:14:29.738Z,15.00
2023-04-05T01:17:36.975Z,17.60
2023-04-05T01:20:47.229Z,15.40
2023-04-05T01:24:01.216Z,13.00
2023-04-05T01:27:11.733Z,14.00
2023-04-05T01:30:21.925Z,14.00
2023-04-05T01:33:33.338Z,17.00
2023-04-05T01:36:41.682Z,10.75
2023-04-05T01:39:47.544Z,13.00
2023-04-05T01:42:50.808Z,18.00
2023-04-05T01:45:55.681Z,16.60
2023-04-05T01:48:59.132Z,20.00
2023-04-05T01:52:02.437Z,14.00
2023-04-05T01:55:06.259Z,18.00
2023-04-05T01:58:09.808Z,19.40
2023-04-05T02:01:15.588Z,23.40
2023-04-05T02:04:19.205Z,14.40
2023-04-05T02:07:22.497Z,14.50
2023-04-05T02:10:26.084Z,17.00
2023-04-05T02:13:31.195Z,16.60
2023-04-05T02:16:35.901Z,17.40
2023-04-05T02:19:41.868Z,18.40
2023-04-05T02:22:46.095Z,14.00
2023-04-05T02:25:49.690Z,16.75
2023-04-05T02:28:52.923Z,16.20
2023-04-05T02:31:59.488Z,18.75
2023-04-05T02:35:02.913Z,17.00
2023-04-05T02:38:07.177Z,18.40
2023-04-05T02:41:11.750Z,18.80
2023-04-05T02:44:15.113Z,19.25
2023-04-05T02:47:21.720Z,18.00
2023-04-05T02:50:30.959Z,17.00
2023-04-05T02:53:34.527Z,17.75
2023-04-05T02:56:41.837Z,18.00
2023-04-05T02:59:49.809Z,20.00
2023-04-05T03:02:54.904Z,19.00
2023-04-05T03:06:10.006Z,20.00
2023-04-05T03:09:20.039Z,20.00
2023-04-05T03:12:27.745Z,19.00
2023-04-05T03:15:33.534Z,17.60
2023-04-05T03:18:44.175Z,17.00
2023-04-05T03:21:48.092Z,19.60
2023-04-05T03:25:11.542Z,21.00
2023-04-05T03:28:21.161Z,19.50
2023-04-05T03:31:30.464Z,18.00
2023-04-05T03:34:39.246Z,22.00
2023-04-05T03:37:44.477Z,21.00
2023-04-05T03:40:49.143Z,22.00
2023-04-05T03:43:52.618Z,21.20
2023-04-05T03:46:59.466Z,22.00
2023-04-05T03:50:04.847Z,20.00
2023-04-05T03:53:08.400Z,22.00
2023-04-05T03:56:13.030Z,22.00
2023-04-05T03:59:21.753Z,22.00
2023-04-05T04:02:25.928Z,21.20
2023-04-05T04:05:31.623Z,22.60
2023-04-05T04:08:35.423Z,21.60
2023-04-05T04:11:38.766Z,22.00
2023-04-05T04:14:43.327Z,21.40
2023-04-05T04:18:05.652Z,19.80
2023-04-05T04:21:24.917Z,20.75
2023-04-05T04:24:50.203Z,23.00
2023-04-05T04:28:12.958Z,20.00
2023-04-05T04:31:27.691Z,21.60
2023-04-05T04:34:34.662Z,22.00
2023-04-05T05:11:45.602Z,21.00
2023-04-05T05:15:17.606Z,22.00
2023-04-05T05:18:21.294Z,18.60
2023-04-05T05:21:25.790Z,20.80
2023-04-05T05:24:32.939Z,17.80
2023-04-05T05:27:37.640Z,18.50
2023-04-05T05:30:41.130Z,19.75
2023-04-05T05:33:45.880Z,19.75
2023-04-05T05:36:49.176Z,20.00
2023-04-05T05:39:52.676Z,20.00
2023-04-05T05:42:57.270Z,21.00
2023-04-05T05:46:02.849Z,18.00
2023-04-05T05:49:06.234Z,20.00
2023-04-05T05:52:09.489Z,22.20
2023-04-05T05:55:12.748Z,22.00
2023-04-05T05:58:18.243Z,22.00
2023-04-05T06:01:23.135Z,23.00
2023-04-05T06:04:26.595Z,23.00
2023-04-05T06:07:30.159Z,23.00
2023-04-05T06:10:33.434Z,22.00
2023-04-05T06:13:38.064Z,23.00
2023-04-05T06:16:41.582Z,23.00
2023-04-05T06:19:44.926Z,22.00
2023-04-05T06:22:48.215Z,23.60
2023-04-05T06:25:51.495Z,22.67
2023-04-05T06:28:56.468Z,21.80
2023-04-05T06:31:59.804Z,23.00
2023-04-05T06:35:03.960Z,23.00
2023-04-05T06:38:07.185Z,22.50
2023-04-05T06:41:10.790Z,24.00
2023-04-05T06:44:15.543Z,23.20
2023-04-05T06:47:19.146Z,22.00
2023-04-05T06:50:22.581Z,23.00
2023-04-05T06:53:27.630Z,20.20
2023-04-05T06:56:30.997Z,20.40
2023-04-05T06:59:35.874Z,19.00
2023-04-05T07:02:39.301Z,19.40
2023-04-05T07:05:43.024Z,14.00
2023-04-05T07:08:46.286Z,16.40
2023-04-05T07:11:49.872Z,16.00
2023-04-05T07:14:54.487Z,17.00
2023-04-05T07:17:57.791Z,16.40
2023-04-05T07:21:01.991Z,16.00
2023-04-05T07:24:06.582Z,12.20
2023-04-05T07:27:09.800Z,17.00
2023-04-05T07:30:15.520Z,15.40
2023-04-05T07:33:18.786Z,14.00
2023-04-05T07:36:22.034Z,19.00
2023-04-05T07:39:25.589Z,21.80
2023-04-05T07:42:30.133Z,14.40
2023-04-05T07:45:34.746Z,17.00
2023-04-05T07:48:37.974Z,19.00
2023-04-05T07:51:43.125Z,15.00
2023-04-05T07:54:46.706Z,16.40
2023-04-05T07:57:51.076Z,15.00
2023-04-05T08:01:00.622Z,15.00
2023-04-05T08:04:04.688Z,17.00
2023-04-05T08:07:08.161Z,20.00
2023-04-05T08:10:12.327Z,18.60
2023-04-05T08:13:16.208Z,20.50
2023-04-05T08:16:21.051Z,16.00
2023-04-05T08:19:24.366Z,16.00
2023-04-05T08:22:30.211Z,19.40
2023-04-05T08:25:33.513Z,17.00
2023-04-05T08:29:08.199Z,17.00
2023-04-05T08:32:12.943Z,16.40
2023-04-05T08:35:16.443Z,18.00
2023-04-05T08:38:19.651Z,18.00
2023-04-05T08:41:25.052Z,15.40
2023-04-05T08:44:32.790Z,15.00
2023-04-05T08:47:38.977Z,14.00
2023-04-05T08:50:42.456Z,13.00
2023-04-05T08:53:45.848Z,11.00
2023-04-05T08:56:50.458Z,13.00
2023-04-05T08:59:54.422Z,13.40
2023-04-05T09:03:02.753Z,13.00
2023-04-05T09:06:11.904Z,10.60
2023-04-05T09:09:17.285Z,13.40
2023-04-05T09:12:22.776Z,13.00
2023-04-05T09:15:27.136Z,13.40
2023-04-05T09:18:32.233Z,13.00
2023-04-05T09:21:59.326Z,13.00
2023-04-05T09:25:02.707Z,14.60
2023-04-05T09:28:06.649Z,17.20
2023-04-05T09:31:10.054Z,16.00
2023-04-05T09:34:22.060Z,15.40
2023-04-05T09:37:25.431Z,15.00
2023-04-05T09:40:43.738Z,14.00
2023-04-05T09:43:46.998Z,16.60
2023-04-05T09:46:50.435Z,15.00
2023-04-05T09:49:55.892Z,17.40
2023-04-05T09:53:11.130Z,14.60
2023-04-05T09:56:14.986Z,13.00
2023-04-05T09:59:18.650Z,13.80
2023-04-05T10:02:23.469Z,14.00
2023-04-05T10:05:29.354Z,11.00
2023-04-05T10:08:32.690Z,12.00
2023-04-05T10:11:37.851Z,13.25
2023-04-05T10:14:41.246Z,15.00
2023-04-05T10:17:49.840Z,12.40
2023-04-05T10:20:59.320Z,11.25
2023-04-05T10:24:12.298Z,12.00
2023-04-05T10:27:23.035Z,14.00
2023-04-05T10:30:31.451Z,13.00
2023-04-05T10:33:42.500Z,7.40
2023-04-05T10:36:52.205Z,8.00
2023-04-05T10:40:01.529Z,10.00
2023-04-05T10:43:08.340Z,11.00
2023-04-05T10:46:12.791Z,10.00
2023-04-05T10:49:23.407Z,12.00
2023-04-05T10:52:29.925Z,12.25
2023-04-05T10:55:33.935Z,10.00
2023-04-05T10:58:39.759Z,10.00
2023-04-05T11:01:44.560Z,14.00
2023-04-05T11:04:47.861Z,9.00
2023-04-05T11:07:57.149Z,12.00
2023-04-05T11:11:00.557Z,12.00
2023-04-05T11:14:19.206Z,16.00
2023-04-05T11:17:27.241Z,16.00
2023-04-05T11:20:42.742Z,16.00
2023-04-05T11:27:13.943Z,17.00
2023-04-05T11:30:49.574Z,16.00
2023-04-05T11:33:58.664Z,16.00
2023-04-05T11:37:02.035Z,16.00
2023-04-05T11:40:27.236Z,14.00
2023-04-05T11:43:34.632Z,12.00
2023-04-05T11:46:37.975Z,12.40
2023-04-05T11:49:42.649Z,15.40
2023-04-05T11:52:46.283Z,16.40
2023-04-05T11:55:51.708Z,13.00
2023-04-05T11:58:59.584Z,12.00
2023-04-05T12:02:04.239Z,12.00
2023-04-05T12:05:08.124Z,11.60
2023-04-05T12:08:11.421Z,11.00
2023-04-05T12:11:14.690Z,10.20
2023-04-05T12:14:19.282Z,12.20
2023-04-05T12:17:39.491Z,13.00
2023-04-05T12:20:42.937Z,13.00
2023-04-05T12:23:46.510Z,15.00
2023-04-05T12:26:49.854Z,17.20
2023-04-05T12:30:08.835Z,20.00
2023-04-05T12:33:12.244Z,14.75
2023-04-05T12:36:16.240Z,18.00
2023-04-05T12:39:19.707Z,17.40
2023-04-05T12:42:23.841Z,16.00
2023-04-05T12:45:29.295Z,14.60
2023-04-05T12:48:32.618Z,12.00
2023-04-05T12:51:36.667Z,15.60
2023-04-05T12:54:40.254Z,17.00
2023-04-05T12:57:43.558Z,17.00
2023-04-05T13:00:48.509Z,14.80
2023-04-05T13:03:58.914Z,13.60
2023-04-05T13:07:08.703Z,14.80
2023-04-05T13:10:12.316Z,13.40
2023-04-05T13:13:16.473Z,14.40
2023-04-05T13:16:21.153Z,10.75
2023-04-05T13:19:24.896Z,13.00
2023-04-05T13:22:28.145Z,13.00
2023-04-05T13:25:31.649Z,14.60
2023-04-05T13:28:35.450Z,14.00
2023-04-05T13:31:41.233Z,15.00
2023-04-05T13:34:44.531Z,14.60
2023-04-05T13:37:47.820Z,14.40
2023-04-05T13:40:51.072Z,16.75
2023-04-05T13:43:54.352Z,16.80
2023-04-05T13:46:59.119Z,16.40
2023-04-05T13:50:02.865Z,19.80
2023-04-05T13:53:06.293Z,16.60
2023-04-05T13:56:09.584Z,17.00
2023-04-05T13:59:17.169Z,18.00
2023-04-05T14:02:25.906Z,18.40
2023-04-05T14:05:29.323Z,16.40
2023-04-05T14:08:32.685Z,18.67
2023-04-05T14:11:36.492Z,16.80
2023-04-05T14:14:39.809Z,17.40
2023-04-05T14:17:44.542Z,18.00
2023-04-05T14:20:48.229Z,17.60
2023-04-05T14:23:54.352Z,17.00
2023-04-05T14:26:58.893Z,17.00
2023-04-05T14:30:02.217Z,17.40
2023-04-05T14:33:07.570Z,14.60
2023-04-05T14:36:10.843Z,17.00
2023-04-05T14:39:14.108Z,16.60
2023-04-05T14:42:17.345Z,16.75
2023-04-05T14:45:20.963Z,15.75
2023-04-05T14:48:25.637Z,15.00
2023-04-05T14:51:28.970Z,15.00
2023-04-05T14:54:32.231Z,14.00
2023-04-05T14:57:35.742Z,17.00
2023-04-05T15:00:39.136Z,15.80
2023-04-05T15:03:43.925Z,18.00
2023-04-05T15:06:47.357Z,13.40
2023-04-05T15:09:51.629Z,18.00
2023-04-05T15:12:54.880Z,14.00
2023-04-05T15:15:58.127Z,14.40
2023-04-05T15:19:02.792Z,14.00
2023-04-05T15:22:06.845Z,14.50
2023-04-05T15:25:11.323Z,13.80
2023-04-05T15:28:14.877Z,15.20
2023-04-05T15:31:18.212Z,12.00
2023-04-05T15:34:23.417Z,13.80
2023-04-05T15:37:26.737Z,12.00
2023-04-05T15:40:30.475Z,12.80
2023-04-05T15:43:34.195Z,12.00
2023-04-05T15:46:37.495Z,14.40
2023-04-05T15:49:43.503Z,13.00
2023-04-05T15:52:47.402Z,12.80
2023-04-05T15:55:50.703Z,12.00
2023-04-05T15:58:53.984Z,15.25
2023-04-05T16:01:57.229Z,11.50
2023-04-05T16:05:01.890Z,11.40
2023-04-05T16:08:05.154Z,12.00
2023-04-05T16:11:08.716Z,9.60
2023-04-05T16:14:11.996Z,12.00
2023-04-05T16:17:15.417Z,11.00
2023-04-05T16:20:20.146Z,9.40
2023-04-05T16:23:23.437Z,11.80
2023-04-05T16:26:27.371Z,9.80
2023-04-05T16:29:30.851Z,11.00
2023-04-05T16:32:34.334Z,11.00
2023-04-05T16:35:39.065Z,12.00
2023-04-05T16:38:43.509Z,15.25
2023-04-05T16:41:47.854Z,14.60
2023-04-05T16:44:51.204Z,11.00
2023-04-05T16:47:56.127Z,11.00
2023-04-05T16:51:01.252Z,11.60
2023-04-05T16:54:24.854Z,12.00
2023-04-05T16:57:28.933Z,11.80
2023-04-05T17:00:32.287Z,15.00
2023-04-05T17:03:35.609Z,14.00
2023-04-05T17:06:40.213Z,14.00
2023-04-05T17:09:43.475Z,13.00
2023-04-05T17:12:46.792Z,15.00
2023-04-05T17:15:50.247Z,12.00
2023-04-05T17:18:53.451Z,12.50
2023-04-05T17:21:58.006Z,15.00
2023-04-05T17:25:02.833Z,14.60
2023-04-05T17:28:06.089Z,14.00
2023-04-05T17:31:09.586Z,15.00
2023-04-05T17:34:15.253Z,11.50
2023-04-05T17:37:19.920Z,12.00
2023-04-05T17:40:23.167Z,13.60
2023-04-05T17:43:26.761Z,13.60
2023-04-05T17:46:39.749Z,12.00
2023-04-05T17:49:46.211Z,13.00
2023-04-05T17:52:50.816Z,11.60
2023-04-05T17:55:56.747Z,11.80
2023-04-05T17:59:00.268Z,13.00
2023-04-05T18:02:03.938Z,12.00
2023-04-05T18:05:07.871Z,11.00
2023-04-05T18:08:12.485Z,11.80
2023-04-05T18:11:15.894Z,14.00
2023-04-05T18:14:19.119Z,11.00
2023-04-05T18:17:22.457Z,11.00
2023-04-05T18:20:25.696Z,15.00
2023-04-05T18:23:30.368Z,15.00
2023-04-05T18:26:34.825Z,13.00
2023-04-05T18:29:38.514Z,13.00
2023-04-05T18:32:42.037Z,12.80
2023-04-05T18:35:51.097Z,15.00
2023-04-05T18:38:56.676Z,12.60
2023-04-05T18:42:00.116Z,16.00
2023-04-05T18:45:03.779Z,14.40
2023-04-05T18:48:07.216Z,15.00
2023-04-05T18:51:10.518Z,19.00
2023-04-05T18:54:16.682Z,18.40
2023-04-05T18:57:20.040Z,19.75
2023-04-05T19:00:23.471Z,19.75
2023-04-05T19:03:27.751Z,19.00
2023-04-05T19:06:31.108Z,17.00
2023-04-05T19:09:35.781Z,20.00
2023-04-05T19:12:39.036Z,22.00
2023-04-05T19:15:42.582Z,20.60
2023-04-05T19:18:46.311Z,20.00
2023-04-05T19:21:49.738Z,23.00
2023-04-05T19:24:54.754Z,20.00
2023-04-05T19:27:58.186Z,20.00
2023-04-05T19:31:01.467Z,21.60
2023-04-05T19:34:07.584Z,19.00
2023-04-05T19:37:11.357Z,18.40
2023-04-05T19:40:16.003Z,17.60
2023-04-05T19:43:19.638Z,15.60
2023-04-05T19:46:23.845Z,12.00
2023-04-05T19:49:33.370Z,12.00
2023-04-05T19:52:41.035Z,12.40
2023-04-05T19:55:46.593Z,17.00
2023-04-05T19:58:51.392Z,12.60
2023-04-05T20:01:55.072Z,13.40
2023-04-05T20:04:58.556Z,8.60
2023-04-05T20:08:01.819Z,10.00
2023-04-05T20:11:09.588Z,14.40
2023-04-05T20:14:12.835Z,14.00
2023-04-05T20:17:18.817Z,15.00
2023-04-05T20:20:23.173Z,14.50
2023-04-05T20:23:29.809Z,13.25
2023-04-05T20:26:34.636Z,12.80
2023-04-05T20:29:37.978Z,14.00
2023-04-05T20:32:42.118Z,17.00
2023-04-05T20:35:45.725Z,18.00
2023-04-05T20:38:50.474Z,18.00
2023-04-05T20:41:56.395Z,20.00
2023-04-05T20:44:59.743Z,17.60
2023-04-05T20:48:03.470Z,20.50
2023-04-05T20:51:08.954Z,19.00
2023-04-05T20:54:12.622Z,20.00
2023-04-05T20:57:17.275Z,22.40
2023-04-05T21:00:21.224Z,19.00
2023-04-05T21:03:24.867Z,20.00
2023-04-05T21:06:28.688Z,22.00
2023-04-05T21:09:32.122Z,20.00
2023-04-05T21:12:36.837Z,21.00
2023-04-05T21:15:40.248Z,21.00
2023-04-05T21:18:43.637Z,19.80
2023-04-05T21:21:47.025Z,20.00
2023-04-05T21:24:50.381Z,15.00
2023-04-05T21:27:55.091Z,19.00
2023-04-05T21:30:58.398Z,18.20
2023-04-05T21:34:01.745Z,18.80
2023-04-05T21:37:05.362Z,19.40
2023-04-05T21:40:10.276Z,20.25
2023-04-05T21:43:14.897Z,19.00
2023-04-05T21:46:20.473Z,19.60
2023-04-05T21:49:24.044Z,19.75
2023-04-05T21:52:27.496Z,15.80
2023-04-05T21:55:30.734Z,18.00
2023-04-05T21:58:35.365Z,14.20
2023-04-05T22:01:38.866Z,18.40
2023-04-05T22:04:42.184Z,18.20
2023-04-05T22:07:45.953Z,14.80
2023-04-05T22:10:49.270Z,17.40
2023-04-05T22:13:53.927Z,16.00
2023-04-05T22:16:57.820Z,14.00
2023-04-05T22:20:19.739Z,16.00
2023-04-05T22:23:22.985Z,15.40
2023-04-05T22:26:26.293Z,18.00
2023-04-05T22:29:31.034Z,19.00
2023-04-05T22:32:34.355Z,16.00
2023-04-05T22:35:37.649Z,18.00
2023-04-05T22:39:00.831Z,18.00
2023-04-05T22:42:04.104Z,17.00
2023-04-05T22:45:10.120Z,16.00
2023-04-05T22:48:13.896Z,17.20
2023-04-05T22:51:36.629Z,18.00
2023-04-05T22:54:39.898Z,16.40
2023-04-05T22:57:43.191Z,16.67
2023-04-05T23:01:06.933Z,19.40
2023-04-05T23:04:28.622Z,16.80
2023-04-05T23:07:31.869Z,16.50
2023-04-05T23:10:54.109Z,13.00
2023-04-05T23:13:57.390Z,14.25
2023-04-05T23:17:21.283Z,15.40
2023-04-05T23:20:24.530Z,15.00
2023-04-05T23:23:46.331Z,18.00
2023-04-05T23:26:49.639Z,16.00
2023-04-05T23:29:52.876Z,17.00
2023-04-05T23:32:57.588Z,15.00
2023-04-05T23:36:19.616Z,15.00
2023-04-05T23:39:41.194Z,14.75
2023-04-05T23:42:44.494Z,17.00
2023-04-05T23:46:07.893Z,15.40
2023-04-05T23:49:31.404Z,13.00
2023-04-05T23:52:34.926Z,17.25
2023-04-05T23:55:42.169Z,17.00
2023-04-05T23:59:03.997Z,15.60
